sensor_id;sensor_type;location;lat;lon;timestamp;P1;durP1;ratioP1;P2;durP2;ratioP2
7903;SDS011;3997;48.416;8.512;2023-09-19T00:01:08;0.68;;;0.68;;
7903;SDS011;3997;48.416;8.512;2023-09-19T00:03:37;0.70;;;0.70;;
7903;SDS011;3997;48.416;8.512;2023-09-19T00:06:04;0.60;;;0.60;;
7903;SDS011;3997;48.416;8.512;2023-09-19T00:08:32;1.30;;;0.80;;
7903;SDS011;3997;48.416;8.512;2023-09-19T00:10:59;0.73;;;0.57;;
7903;SDS011;3997;48.416;8.512;2023-09-19T00:13:31;2.70;;;0.70;;
7903;SDS011;3997;48.416;8.512;2023-09-19T00:15:58;1.15;;;0.80;;
7903;SDS011;3997;48.416;8.512;2023-09-19T00:18:25;0.70;;;0.70;;
7903;SDS011;3997;48.416;8.512;2023-09-19T00:20:58;0.75;;;0.70;;
7903;SDS011;3997;48.416;8.512;2023-09-19T00:23:24;0.90;;;0.68;;
7903;SDS011;3997;48.416;8.512;2023-09-19T00:25:51;0.93;;;0.68;;
7903;SDS011;3997;48.416;8.512;2023-09-19T00:28:17;0.68;;;0.63;;
7903;SDS011;3997;48.416;8.512;2023-09-19T00:30:44;0.75;;;0.63;;
7903;SDS011;3997;48.416;8.512;2023-09-19T00:33:15;1.17;;;0.63;;
7903;SDS011;3997;48.416;8.512;2023-09-19T00:35:46;0.73;;;0.73;;
7903;SDS011;3997;48.416;8.512;2023-09-19T00:38:14;1.80;;;0.70;;
7903;SDS011;3997;48.416;8.512;2023-09-19T00:40:43;0.60;;;0.60;;
7903;SDS011;3997;48.416;8.512;2023-09-19T00:43:09;0.88;;;0.70;;
7903;SDS011;3997;48.416;8.512;2023-09-19T00:45:36;0.88;;;0.88;;
7903;SDS011;3997;48.416;8.512;2023-09-19T00:48:04;1.45;;;0.95;;
7903;SDS011;3997;48.416;8.512;2023-09-19T00:50:31;1.00;;;0.68;;
7903;SDS011;3997;48.416;8.512;2023-09-19T00:52:58;0.95;;;0.77;;
7903;SDS011;3997;48.416;8.512;2023-09-19T00:55:26;1.42;;;0.73;;
7903;SDS011;3997;48.416;8.512;2023-09-19T00:57:55;1.52;;;1.00;;
7903;SDS011;3997;48.416;8.512;2023-09-19T01:00:21;1.02;;;0.90;;
7903;SDS011;3997;48.416;8.512;2023-09-19T01:02:48;0.93;;;0.90;;
7903;SDS011;3997;48.416;8.512;2023-09-19T01:05:15;1.60;;;1.10;;
7903;SDS011;3997;48.416;8.512;2023-09-19T01:07:42;0.70;;;0.70;;
7903;SDS011;3997;48.416;8.512;2023-09-19T01:10:10;0.63;;;0.60;;
7903;SDS011;3997;48.416;8.512;2023-09-19T01:12:41;2.17;;;0.90;;
7903;SDS011;3997;48.416;8.512;2023-09-19T01:15:11;1.35;;;0.90;;
7903;SDS011;3997;48.416;8.512;2023-09-19T01:17:42;1.27;;;0.90;;
7903;SDS011;3997;48.416;8.512;2023-09-19T01:22:56;1.15;;;0.85;;
7903;SDS011;3997;48.416;8.512;2023-09-19T01:25:48;1.15;;;1.00;;
7903;SDS011;3997;48.416;8.512;2023-09-19T01:28:25;0.70;;;0.70;;
7903;SDS011;3997;48.416;8.512;2023-09-19T01:30:57;1.30;;;0.95;;
7903;SDS011;3997;48.416;8.512;2023-09-19T01:33:25;1.10;;;0.90;;
7903;SDS011;3997;48.416;8.512;2023-09-19T01:35:52;1.20;;;1.10;;
7903;SDS011;3997;48.416;8.512;2023-09-19T01:38:22;1.00;;;0.93;;
7903;SDS011;3997;48.416;8.512;2023-09-19T01:40:53;1.33;;;0.90;;
7903;SDS011;3997;48.416;8.512;2023-09-19T01:43:22;1.45;;;0.90;;
7903;SDS011;3997;48.416;8.512;2023-09-19T01:45:50;2.20;;;0.95;;
7903;SDS011;3997;48.416;8.512;2023-09-19T01:48:22;3.42;;;0.90;;
7903;SDS011;3997;48.416;8.512;2023-09-19T01:50:53;1.25;;;1.15;;
7903;SDS011;3997;48.416;8.512;2023-09-19T01:53:23;0.73;;;0.73;;
7903;SDS011;3997;48.416;8.512;2023-09-19T01:55:53;1.20;;;1.10;;
7903;SDS011;3997;48.416;8.512;2023-09-19T01:58:21;2.00;;;1.00;;
7903;SDS011;3997;48.416;8.512;2023-09-19T02:00:51;1.25;;;0.80;;
7903;SDS011;3997;48.416;8.512;2023-09-19T02:03:18;2.30;;;0.98;;
7903;SDS011;3997;48.416;8.512;2023-09-19T02:05:50;2.83;;;1.00;;
7903;SDS011;3997;48.416;8.512;2023-09-19T02:08:19;1.05;;;0.98;;
7903;SDS011;3997;48.416;8.512;2023-09-19T02:10:45;0.85;;;0.85;;
7903;SDS011;3997;48.416;8.512;2023-09-19T02:13:14;2.45;;;0.85;;
7903;SDS011;3997;48.416;8.512;2023-09-19T02:15:42;1.25;;;1.00;;
7903;SDS011;3997;48.416;8.512;2023-09-19T02:18:09;1.33;;;1.05;;
7903;SDS011;3997;48.416;8.512;2023-09-19T02:20:36;1.60;;;0.93;;
7903;SDS011;3997;48.416;8.512;2023-09-19T02:23:04;2.47;;;0.95;;
7903;SDS011;3997;48.416;8.512;2023-09-19T02:25:31;1.10;;;1.00;;
7903;SDS011;3997;48.416;8.512;2023-09-19T02:27:58;1.58;;;1.30;;
7903;SDS011;3997;48.416;8.512;2023-09-19T02:30:26;1.80;;;1.05;;
7903;SDS011;3997;48.416;8.512;2023-09-19T02:32:52;1.00;;;1.00;;
7903;SDS011;3997;48.416;8.512;2023-09-19T02:35:19;2.05;;;0.88;;
7903;SDS011;3997;48.416;8.512;2023-09-19T02:37:46;1.65;;;1.08;;
7903;SDS011;3997;48.416;8.512;2023-09-19T02:40:14;1.25;;;0.98;;
7903;SDS011;3997;48.416;8.512;2023-09-19T02:42:45;1.00;;;0.90;;
7903;SDS011;3997;48.416;8.512;2023-09-19T02:45:14;1.58;;;0.98;;
7903;SDS011;3997;48.416;8.512;2023-09-19T02:47:40;2.20;;;1.00;;
7903;SDS011;3997;48.416;8.512;2023-09-19T02:50:07;1.38;;;0.95;;
7903;SDS011;3997;48.416;8.512;2023-09-19T02:52:35;1.77;;;1.00;;
7903;SDS011;3997;48.416;8.512;2023-09-19T02:55:02;1.33;;;1.10;;
7903;SDS011;3997;48.416;8.512;2023-09-19T02:57:32;1.13;;;0.95;;
7903;SDS011;3997;48.416;8.512;2023-09-19T02:59:59;2.28;;;1.00;;
7903;SDS011;3997;48.416;8.512;2023-09-19T03:02:27;1.42;;;1.10;;
7903;SDS011;3997;48.416;8.512;2023-09-19T03:04:54;1.85;;;0.90;;
7903;SDS011;3997;48.416;8.512;2023-09-19T03:07:21;1.08;;;0.80;;
7903;SDS011;3997;48.416;8.512;2023-09-19T03:09:48;1.45;;;1.30;;
7903;SDS011;3997;48.416;8.512;2023-09-19T03:12:15;1.70;;;0.82;;
7903;SDS011;3997;48.416;8.512;2023-09-19T03:14:43;1.20;;;0.80;;
7903;SDS011;3997;48.416;8.512;2023-09-19T03:17:09;1.10;;;0.95;;
7903;SDS011;3997;48.416;8.512;2023-09-19T03:19:36;1.05;;;0.88;;
7903;SDS011;3997;48.416;8.512;2023-09-19T03:22:05;1.02;;;1.00;;
7903;SDS011;3997;48.416;8.512;2023-09-19T03:24:32;1.75;;;0.95;;
7903;SDS011;3997;48.416;8.512;2023-09-19T03:27:00;1.08;;;0.70;;
7903;SDS011;3997;48.416;8.512;2023-09-19T03:29:28;0.80;;;0.70;;
7903;SDS011;3997;48.416;8.512;2023-09-19T03:31:55;2.15;;;0.70;;
7903;SDS011;3997;48.416;8.512;2023-09-19T03:34:21;1.65;;;0.90;;
7903;SDS011;3997;48.416;8.512;2023-09-19T03:36:48;1.40;;;0.88;;
7903;SDS011;3997;48.416;8.512;2023-09-19T03:39:15;1.58;;;0.70;;
7903;SDS011;3997;48.416;8.512;2023-09-19T03:41:41;0.75;;;0.75;;
7903;SDS011;3997;48.416;8.512;2023-09-19T03:44:08;0.75;;;0.75;;
7903;SDS011;3997;48.416;8.512;2023-09-19T03:46:34;0.68;;;0.68;;
7903;SDS011;3997;48.416;8.512;2023-09-19T03:49:03;1.58;;;0.70;;
7903;SDS011;3997;48.416;8.512;2023-09-19T03:51:29;2.08;;;0.70;;
7903;SDS011;3997;48.416;8.512;2023-09-19T03:53:56;1.13;;;0.90;;
7903;SDS011;3997;48.416;8.512;2023-09-19T03:56:23;1.73;;;1.05;;
7903;SDS011;3997;48.416;8.512;2023-09-19T03:58:49;0.90;;;0.90;;
7903;SDS011;3997;48.416;8.512;2023-09-19T04:01:16;0.88;;;0.88;;
7903;SDS011;3997;48.416;8.512;2023-09-19T04:03:43;1.17;;;0.80;;
7903;SDS011;3997;48.416;8.512;2023-09-19T04:06:14;0.70;;;0.70;;
7903;SDS011;3997;48.416;8.512;2023-09-19T04:08:41;1.33;;;1.13;;
7903;SDS011;3997;48.416;8.512;2023-09-19T04:11:08;0.80;;;0.80;;
7903;SDS011;3997;48.416;8.512;2023-09-19T04:13:35;0.90;;;0.85;;
7903;SDS011;3997;48.416;8.512;2023-09-19T04:16:01;1.50;;;0.88;;
7903;SDS011;3997;48.416;8.512;2023-09-19T04:18:28;2.30;;;1.00;;
7903;SDS011;3997;48.416;8.512;2023-09-19T04:20:57;0.98;;;0.80;;
7903;SDS011;3997;48.416;8.512;2023-09-19T04:23:26;1.08;;;0.80;;
7903;SDS011;3997;48.416;8.512;2023-09-19T04:25:53;1.10;;;0.80;;
7903;SDS011;3997;48.416;8.512;2023-09-19T04:28:19;0.80;;;0.80;;
7903;SDS011;3997;48.416;8.512;2023-09-19T04:30:46;1.30;;;1.00;;
7903;SDS011;3997;48.416;8.512;2023-09-19T04:33:13;3.80;;;0.90;;
7903;SDS011;3997;48.416;8.512;2023-09-19T04:35:39;0.90;;;0.90;;
7903;SDS011;3997;48.416;8.512;2023-09-19T04:38:07;1.98;;;0.98;;
7903;SDS011;3997;48.416;8.512;2023-09-19T04:40:35;1.58;;;0.90;;
7903;SDS011;3997;48.416;8.512;2023-09-19T04:43:04;0.70;;;0.70;;
7903;SDS011;3997;48.416;8.512;2023-09-19T04:45:32;1.10;;;1.00;;
7903;SDS011;3997;48.416;8.512;2023-09-19T04:47:59;1.95;;;1.13;;
7903;SDS011;3997;48.416;8.512;2023-09-19T04:50:26;1.67;;;0.90;;
7903;SDS011;3997;48.416;8.512;2023-09-19T04:52:53;1.48;;;0.70;;
7903;SDS011;3997;48.416;8.512;2023-09-19T04:55:19;1.33;;;0.85;;
7903;SDS011;3997;48.416;8.512;2023-09-19T04:57:47;1.05;;;0.95;;
7903;SDS011;3997;48.416;8.512;2023-09-19T05:00:15;1.73;;;1.05;;
7903;SDS011;3997;48.416;8.512;2023-09-19T05:02:44;2.15;;;1.00;;
7903;SDS011;3997;48.416;8.512;2023-09-19T05:05:10;0.80;;;0.80;;
7903;SDS011;3997;48.416;8.512;2023-09-19T05:07:38;0.88;;;0.77;;
7903;SDS011;3997;48.416;8.512;2023-09-19T05:10:06;2.22;;;0.73;;
7903;SDS011;3997;48.416;8.512;2023-09-19T05:12:33;2.80;;;0.80;;
7903;SDS011;3997;48.416;8.512;2023-09-19T05:15:01;0.70;;;0.70;;
7903;SDS011;3997;48.416;8.512;2023-09-19T05:17:28;0.98;;;0.80;;
7903;SDS011;3997;48.416;8.512;2023-09-19T05:19:55;0.80;;;0.80;;
7903;SDS011;3997;48.416;8.512;2023-09-19T05:22:21;1.98;;;0.52;;
7903;SDS011;3997;48.416;8.512;2023-09-19T05:24:49;0.52;;;0.52;;
7903;SDS011;3997;48.416;8.512;2023-09-19T05:27:16;1.60;;;0.52;;
7903;SDS011;3997;48.416;8.512;2023-09-19T05:29:43;0.80;;;0.80;;
7903;SDS011;3997;48.416;8.512;2023-09-19T05:32:10;1.70;;;0.55;;
7903;SDS011;3997;48.416;8.512;2023-09-19T05:34:37;0.40;;;0.40;;
7903;SDS011;3997;48.416;8.512;2023-09-19T05:37:04;0.65;;;0.50;;
7903;SDS011;3997;48.416;8.512;2023-09-19T05:39:34;0.80;;;0.50;;
7903;SDS011;3997;48.416;8.512;2023-09-19T05:42:02;0.80;;;0.50;;
7903;SDS011;3997;48.416;8.512;2023-09-19T05:44:29;0.85;;;0.50;;
7903;SDS011;3997;48.416;8.512;2023-09-19T05:46:56;0.50;;;0.50;;
7903;SDS011;3997;48.416;8.512;2023-09-19T05:49:24;0.50;;;0.50;;
7903;SDS011;3997;48.416;8.512;2023-09-19T05:51:51;0.30;;;0.30;;
7903;SDS011;3997;48.416;8.512;2023-09-19T05:54:19;0.63;;;0.50;;
7903;SDS011;3997;48.416;8.512;2023-09-19T05:56:46;0.60;;;0.60;;
7903;SDS011;3997;48.416;8.512;2023-09-19T05:59:12;0.63;;;0.50;;
7903;SDS011;3997;48.416;8.512;2023-09-19T06:01:40;1.40;;;0.60;;
7903;SDS011;3997;48.416;8.512;2023-09-19T06:04:07;0.50;;;0.50;;
7903;SDS011;3997;48.416;8.512;2023-09-19T06:06:35;0.68;;;0.68;;
7903;SDS011;3997;48.416;8.512;2023-09-19T06:09:04;0.70;;;0.70;;
7903;SDS011;3997;48.416;8.512;2023-09-19T06:11:30;0.60;;;0.60;;
7903;SDS011;3997;48.416;8.512;2023-09-19T06:13:59;1.70;;;1.42;;
7903;SDS011;3997;48.416;8.512;2023-09-19T06:16:27;0.98;;;0.60;;
7903;SDS011;3997;48.416;8.512;2023-09-19T06:18:53;0.68;;;0.63;;
7903;SDS011;3997;48.416;8.512;2023-09-19T06:21:21;1.80;;;0.70;;
7903;SDS011;3997;48.416;8.512;2023-09-19T06:23:49;0.57;;;0.52;;
7903;SDS011;3997;48.416;8.512;2023-09-19T06:26:15;0.80;;;0.73;;
7903;SDS011;3997;48.416;8.512;2023-09-19T06:28:42;2.33;;;0.70;;
7903;SDS011;3997;48.416;8.512;2023-09-19T06:31:09;0.93;;;0.70;;
7903;SDS011;3997;48.416;8.512;2023-09-19T06:33:37;1.25;;;1.00;;
7903;SDS011;3997;48.416;8.512;2023-09-19T06:36:04;0.95;;;0.88;;
7903;SDS011;3997;48.416;8.512;2023-09-19T06:38:31;1.92;;;1.10;;
7903;SDS011;3997;48.416;8.512;2023-09-19T06:41:00;0.80;;;0.80;;
7903;SDS011;3997;48.416;8.512;2023-09-19T06:43:30;1.13;;;0.80;;
7903;SDS011;3997;48.416;8.512;2023-09-19T06:45:57;1.08;;;0.95;;
7903;SDS011;3997;48.416;8.512;2023-09-19T06:48:24;2.85;;;0.95;;
7903;SDS011;3997;48.416;8.512;2023-09-19T06:50:52;0.90;;;0.90;;
7903;SDS011;3997;48.416;8.512;2023-09-19T06:53:20;1.58;;;1.25;;
7903;SDS011;3997;48.416;8.512;2023-09-19T06:55:47;1.15;;;0.90;;
7903;SDS011;3997;48.416;8.512;2023-09-19T06:58:15;0.80;;;0.80;;
7903;SDS011;3997;48.416;8.512;2023-09-19T07:00:42;1.75;;;1.10;;
7903;SDS011;3997;48.416;8.512;2023-09-19T07:03:09;1.80;;;1.15;;
7903;SDS011;3997;48.416;8.512;2023-09-19T07:05:37;1.20;;;1.10;;
7903;SDS011;3997;48.416;8.512;2023-09-19T07:08:04;0.82;;;0.82;;
7903;SDS011;3997;48.416;8.512;2023-09-19T07:10:31;1.92;;;1.00;;
7903;SDS011;3997;48.416;8.512;2023-09-19T07:12:58;1.48;;;0.93;;
7903;SDS011;3997;48.416;8.512;2023-09-19T07:15:26;1.10;;;1.00;;
7903;SDS011;3997;48.416;8.512;2023-09-19T07:17:53;0.60;;;0.60;;
7903;SDS011;3997;48.416;8.512;2023-09-19T07:20:21;2.15;;;1.17;;
7903;SDS011;3997;48.416;8.512;2023-09-19T07:22:48;3.65;;;0.90;;
7903;SDS011;3997;48.416;8.512;2023-09-19T07:25:15;1.80;;;1.08;;
7903;SDS011;3997;48.416;8.512;2023-09-19T07:27:42;1.80;;;0.98;;
7903;SDS011;3997;48.416;8.512;2023-09-19T07:30:09;0.90;;;0.90;;
7903;SDS011;3997;48.416;8.512;2023-09-19T07:32:38;1.20;;;0.80;;
7903;SDS011;3997;48.416;8.512;2023-09-19T07:35:06;1.52;;;0.90;;
7903;SDS011;3997;48.416;8.512;2023-09-19T07:37:32;1.25;;;1.00;;
7903;SDS011;3997;48.416;8.512;2023-09-19T07:39:59;0.95;;;0.80;;
7903;SDS011;3997;48.416;8.512;2023-09-19T07:42:26;0.85;;;0.85;;
7903;SDS011;3997;48.416;8.512;2023-09-19T07:44:52;0.73;;;0.73;;
7903;SDS011;3997;48.416;8.512;2023-09-19T07:47:19;1.15;;;0.88;;
7903;SDS011;3997;48.416;8.512;2023-09-19T07:49:47;1.15;;;1.10;;
7903;SDS011;3997;48.416;8.512;2023-09-19T07:52:14;2.75;;;0.93;;
7903;SDS011;3997;48.416;8.512;2023-09-19T07:54:40;1.58;;;0.98;;
7903;SDS011;3997;48.416;8.512;2023-09-19T07:57:09;1.00;;;0.90;;
7903;SDS011;3997;48.416;8.512;2023-09-19T07:59:35;3.33;;;0.88;;
7903;SDS011;3997;48.416;8.512;2023-09-19T08:02:03;2.35;;;1.10;;
7903;SDS011;3997;48.416;8.512;2023-09-19T08:04:30;0.90;;;0.90;;
7903;SDS011;3997;48.416;8.512;2023-09-19T08:07:00;1.77;;;1.10;;
7903;SDS011;3997;48.416;8.512;2023-09-19T08:09:29;1.38;;;0.90;;
7903;SDS011;3997;48.416;8.512;2023-09-19T08:11:58;1.92;;;0.90;;
7903;SDS011;3997;48.416;8.512;2023-09-19T08:14:27;3.20;;;1.08;;
7903;SDS011;3997;48.416;8.512;2023-09-19T08:16:55;2.20;;;1.10;;
7903;SDS011;3997;48.416;8.512;2023-09-19T08:19:22;1.00;;;1.00;;
7903;SDS011;3997;48.416;8.512;2023-09-19T08:21:53;0.80;;;0.80;;
7903;SDS011;3997;48.416;8.512;2023-09-19T08:24:22;1.70;;;1.00;;
7903;SDS011;3997;48.416;8.512;2023-09-19T08:26:49;2.50;;;1.00;;
7903;SDS011;3997;48.416;8.512;2023-09-19T08:29:16;1.02;;;0.95;;
7903;SDS011;3997;48.416;8.512;2023-09-19T08:31:43;3.28;;;1.17;;
7903;SDS011;3997;48.416;8.512;2023-09-19T08:34:09;1.65;;;1.10;;
7903;SDS011;3997;48.416;8.512;2023-09-19T08:36:36;1.30;;;1.20;;
7903;SDS011;3997;48.416;8.512;2023-09-19T08:39:03;1.08;;;0.98;;
7903;SDS011;3997;48.416;8.512;2023-09-19T08:41:31;2.85;;;1.25;;
7903;SDS011;3997;48.416;8.512;2023-09-19T08:43:58;3.13;;;0.90;;
7903;SDS011;3997;48.416;8.512;2023-09-19T08:46:26;1.35;;;1.00;;
7903;SDS011;3997;48.416;8.512;2023-09-19T08:48:57;1.50;;;1.02;;
7903;SDS011;3997;48.416;8.512;2023-09-19T08:51:30;2.28;;;1.00;;
7903;SDS011;3997;48.416;8.512;2023-09-19T08:53:58;1.73;;;1.00;;
7903;SDS011;3997;48.416;8.512;2023-09-19T08:56:29;1.58;;;0.95;;
7903;SDS011;3997;48.416;8.512;2023-09-19T08:59:02;1.88;;;1.00;;
7903;SDS011;3997;48.416;8.512;2023-09-19T09:01:29;1.90;;;1.10;;
7903;SDS011;3997;48.416;8.512;2023-09-19T09:03:57;2.10;;;1.10;;
7903;SDS011;3997;48.416;8.512;2023-09-19T09:06:24;1.48;;;1.00;;
7903;SDS011;3997;48.416;8.512;2023-09-19T09:08:53;1.83;;;1.00;;
7903;SDS011;3997;48.416;8.512;2023-09-19T09:11:19;1.52;;;1.17;;
7903;SDS011;3997;48.416;8.512;2023-09-19T09:13:47;2.30;;;1.05;;
7903;SDS011;3997;48.416;8.512;2023-09-19T09:16:15;1.33;;;1.20;;
7903;SDS011;3997;48.416;8.512;2023-09-19T09:18:44;1.50;;;1.40;;
7903;SDS011;3997;48.416;8.512;2023-09-19T09:21:10;1.20;;;1.10;;
7903;SDS011;3997;48.416;8.512;2023-09-19T09:23:37;4.13;;;1.10;;
7903;SDS011;3997;48.416;8.512;2023-09-19T09:26:03;1.20;;;1.10;;
7903;SDS011;3997;48.416;8.512;2023-09-19T09:28:32;1.00;;;1.00;;
7903;SDS011;3997;48.416;8.512;2023-09-19T09:31:00;2.13;;;1.25;;
7903;SDS011;3997;48.416;8.512;2023-09-19T09:33:29;2.83;;;1.33;;
7903;SDS011;3997;48.416;8.512;2023-09-19T09:35:56;1.17;;;1.08;;
7903;SDS011;3997;48.416;8.512;2023-09-19T09:38:26;1.58;;;1.00;;
7903;SDS011;3997;48.416;8.512;2023-09-19T09:40:54;3.88;;;1.45;;
7903;SDS011;3997;48.416;8.512;2023-09-19T09:43:27;1.10;;;1.10;;
7903;SDS011;3997;48.416;8.512;2023-09-19T09:46:06;3.05;;;1.30;;
7903;SDS011;3997;48.416;8.512;2023-09-19T09:48:57;1.20;;;1.10;;
7903;SDS011;3997;48.416;8.512;2023-09-19T09:51:41;2.10;;;1.15;;
7903;SDS011;3997;48.416;8.512;2023-09-19T09:54:09;1.83;;;1.30;;
7903;SDS011;3997;48.416;8.512;2023-09-19T09:56:41;2.95;;;1.40;;
7903;SDS011;3997;48.416;8.512;2023-09-19T09:59:17;1.30;;;1.20;;
7903;SDS011;3997;48.416;8.512;2023-09-19T10:01:49;2.05;;;1.42;;
7903;SDS011;3997;48.416;8.512;2023-09-19T10:04:27;2.22;;;1.33;;
7903;SDS011;3997;48.416;8.512;2023-09-19T10:06:56;1.42;;;1.15;;
7903;SDS011;3997;48.416;8.512;2023-09-19T10:09:23;1.27;;;1.17;;
7903;SDS011;3997;48.416;8.512;2023-09-19T10:12:03;4.00;;;1.27;;
7903;SDS011;3997;48.416;8.512;2023-09-19T10:14:30;1.30;;;1.20;;
7903;SDS011;3997;48.416;8.512;2023-09-19T10:16:58;1.88;;;1.40;;
7903;SDS011;3997;48.416;8.512;2023-09-19T10:19:32;1.10;;;1.00;;
7903;SDS011;3997;48.416;8.512;2023-09-19T10:22:00;1.65;;;1.27;;
7903;SDS011;3997;48.416;8.512;2023-09-19T10:24:27;1.42;;;1.30;;
7903;SDS011;3997;48.416;8.512;2023-09-19T10:26:56;1.92;;;1.77;;
7903;SDS011;3997;48.416;8.512;2023-09-19T10:29:23;3.03;;;1.40;;
7903;SDS011;3997;48.416;8.512;2023-09-19T10:31:51;2.13;;;1.38;;
7903;SDS011;3997;48.416;8.512;2023-09-19T10:34:18;2.58;;;1.52;;
7903;SDS011;3997;48.416;8.512;2023-09-19T10:36:48;1.40;;;1.30;;
7903;SDS011;3997;48.416;8.512;2023-09-19T10:39:17;1.50;;;1.40;;
7903;SDS011;3997;48.416;8.512;2023-09-19T10:41:47;2.55;;;1.40;;
7903;SDS011;3997;48.416;8.512;2023-09-19T10:44:19;2.53;;;1.60;;
7903;SDS011;3997;48.416;8.512;2023-09-19T10:46:47;1.65;;;1.23;;
7903;SDS011;3997;48.416;8.512;2023-09-19T10:49:14;1.45;;;1.20;;
7903;SDS011;3997;48.416;8.512;2023-09-19T10:51:42;3.13;;;2.00;;
7903;SDS011;3997;48.416;8.512;2023-09-19T10:54:12;2.50;;;1.30;;
7903;SDS011;3997;48.416;8.512;2023-09-19T10:56:42;1.25;;;1.10;;
7903;SDS011;3997;48.416;8.512;2023-09-19T10:59:12;1.38;;;1.27;;
7903;SDS011;3997;48.416;8.512;2023-09-19T11:01:41;1.13;;;1.10;;
7903;SDS011;3997;48.416;8.512;2023-09-19T11:04:22;1.67;;;1.10;;
7903;SDS011;3997;48.416;8.512;2023-09-19T11:06:59;2.80;;;1.40;;
7903;SDS011;3997;48.416;8.512;2023-09-19T11:09:27;3.08;;;1.00;;
7903;SDS011;3997;48.416;8.512;2023-09-19T11:12:11;1.98;;;0.95;;
7903;SDS011;3997;48.416;8.512;2023-09-19T11:14:38;2.53;;;1.23;;
7903;SDS011;3997;48.416;8.512;2023-09-19T11:23:17;1.50;;;1.40;;
7903;SDS011;3997;48.416;8.512;2023-09-19T11:25:45;1.30;;;1.20;;
7903;SDS011;3997;48.416;8.512;2023-09-19T11:28:27;1.58;;;1.13;;
7903;SDS011;3997;48.416;8.512;2023-09-19T11:30:55;1.40;;;1.30;;
7903;SDS011;3997;48.416;8.512;2023-09-19T11:33:24;1.42;;;1.33;;
7903;SDS011;3997;48.416;8.512;2023-09-19T11:35:59;1.65;;;1.55;;
7903;SDS011;3997;48.416;8.512;2023-09-19T11:44:30;2.67;;;1.13;;
7903;SDS011;3997;48.416;8.512;2023-09-19T11:46:51;2.33;;;1.55;;
7903;SDS011;3997;48.416;8.512;2023-09-19T11:49:18;1.63;;;1.30;;
7903;SDS011;3997;48.416;8.512;2023-09-19T11:51:48;1.42;;;1.33;;
7903;SDS011;3997;48.416;8.512;2023-09-19T11:54:17;3.53;;;1.63;;
7903;SDS011;3997;48.416;8.512;2023-09-19T11:56:44;2.10;;;1.50;;
7903;SDS011;3997;48.416;8.512;2023-09-19T11:59:13;1.60;;;1.50;;
7903;SDS011;3997;48.416;8.512;2023-09-19T12:01:50;1.50;;;1.40;;
7903;SDS011;3997;48.416;8.512;2023-09-19T12:04:19;1.77;;;1.40;;
7903;SDS011;3997;48.416;8.512;2023-09-19T12:06:57;1.40;;;1.30;;
7903;SDS011;3997;48.416;8.512;2023-09-19T12:09:24;1.52;;;1.20;;
7903;SDS011;3997;48.416;8.512;2023-09-19T12:11:50;1.38;;;1.27;;
7903;SDS011;3997;48.416;8.512;2023-09-19T12:14:25;3.08;;;1.50;;
7903;SDS011;3997;48.416;8.512;2023-09-19T12:16:53;1.90;;;1.10;;
7903;SDS011;3997;48.416;8.512;2023-09-19T12:19:21;1.33;;;1.23;;
7903;SDS011;3997;48.416;8.512;2023-09-19T12:21:53;0.95;;;0.95;;
7903;SDS011;3997;48.416;8.512;2023-09-19T12:24:22;1.30;;;1.20;;
7903;SDS011;3997;48.416;8.512;2023-09-19T12:26:52;1.80;;;1.17;;
7903;SDS011;3997;48.416;8.512;2023-09-19T12:29:19;1.67;;;1.13;;
7903;SDS011;3997;48.416;8.512;2023-09-19T12:31:51;2.35;;;1.13;;
7903;SDS011;3997;48.416;8.512;2023-09-19T12:34:20;2.70;;;1.48;;
7903;SDS011;3997;48.416;8.512;2023-09-19T12:36:47;1.20;;;1.08;;
7903;SDS011;3997;48.416;8.512;2023-09-19T12:39:22;2.63;;;1.58;;
7903;SDS011;3997;48.416;8.512;2023-09-19T12:41:49;1.05;;;1.05;;
7903;SDS011;3997;48.416;8.512;2023-09-19T12:44:16;1.90;;;1.00;;
7903;SDS011;3997;48.416;8.512;2023-09-19T12:46:43;2.03;;;1.00;;
7903;SDS011;3997;48.416;8.512;2023-09-19T12:49:17;1.67;;;1.20;;
7903;SDS011;3997;48.416;8.512;2023-09-19T12:51:45;2.15;;;1.38;;
7903;SDS011;3997;48.416;8.512;2023-09-19T12:54:12;1.85;;;1.08;;
7903;SDS011;3997;48.416;8.512;2023-09-19T12:56:40;1.10;;;1.10;;
7903;SDS011;3997;48.416;8.512;2023-09-19T12:59:09;1.58;;;1.30;;
7903;SDS011;3997;48.416;8.512;2023-09-19T13:01:38;1.40;;;1.30;;
7903;SDS011;3997;48.416;8.512;2023-09-19T13:04:14;2.38;;;1.42;;
7903;SDS011;3997;48.416;8.512;2023-09-19T13:06:44;2.25;;;1.42;;
7903;SDS011;3997;48.416;8.512;2023-09-19T13:09:14;1.20;;;1.20;;
7903;SDS011;3997;48.416;8.512;2023-09-19T13:11:41;2.10;;;1.42;;
7903;SDS011;3997;48.416;8.512;2023-09-19T13:14:16;1.85;;;1.23;;
7903;SDS011;3997;48.416;8.512;2023-09-19T13:16:55;2.08;;;1.50;;
7903;SDS011;3997;48.416;8.512;2023-09-19T13:19:35;1.50;;;1.40;;
7903;SDS011;3997;48.416;8.512;2023-09-19T13:22:04;1.55;;;1.50;;
7903;SDS011;3997;48.416;8.512;2023-09-19T13:24:31;1.50;;;1.40;;
7903;SDS011;3997;48.416;8.512;2023-09-19T13:27:00;1.45;;;1.40;;
7903;SDS011;3997;48.416;8.512;2023-09-19T13:29:28;2.88;;;1.38;;
7903;SDS011;3997;48.416;8.512;2023-09-19T13:31:55;1.60;;;1.50;;
7903;SDS011;3997;48.416;8.512;2023-09-19T13:34:21;1.08;;;1.02;;
7903;SDS011;3997;48.416;8.512;2023-09-19T13:36:48;1.98;;;1.50;;
7903;SDS011;3997;48.416;8.512;2023-09-19T13:39:16;1.45;;;1.40;;
7903;SDS011;3997;48.416;8.512;2023-09-19T13:41:43;1.52;;;1.40;;
7903;SDS011;3997;48.416;8.512;2023-09-19T13:44:10;2.05;;;1.40;;
7903;SDS011;3997;48.416;8.512;2023-09-19T13:46:36;1.40;;;1.30;;
7903;SDS011;3997;48.416;8.512;2023-09-19T13:49:03;3.10;;;1.38;;
7903;SDS011;3997;48.416;8.512;2023-09-19T13:51:30;1.40;;;1.30;;
7903;SDS011;3997;48.416;8.512;2023-09-19T13:53:57;1.17;;;1.08;;
7903;SDS011;3997;48.416;8.512;2023-09-19T13:56:26;2.17;;;1.40;;
7903;SDS011;3997;48.416;8.512;2023-09-19T13:58:53;1.38;;;1.23;;
7903;SDS011;3997;48.416;8.512;2023-09-19T14:01:19;1.55;;;1.45;;
7903;SDS011;3997;48.416;8.512;2023-09-19T14:03:46;1.40;;;1.30;;
7903;SDS011;3997;48.416;8.512;2023-09-19T14:06:14;2.25;;;1.40;;
7903;SDS011;3997;48.416;8.512;2023-09-19T14:08:41;1.30;;;1.30;;
7903;SDS011;3997;48.416;8.512;2023-09-19T14:11:08;1.38;;;1.10;;
7903;SDS011;3997;48.416;8.512;2023-09-19T14:13:36;1.42;;;1.30;;
7903;SDS011;3997;48.416;8.512;2023-09-19T14:16:03;1.20;;;1.20;;
7903;SDS011;3997;48.416;8.512;2023-09-19T14:18:30;1.45;;;1.38;;
7903;SDS011;3997;48.416;8.512;2023-09-19T14:20:56;1.10;;;1.10;;
7903;SDS011;3997;48.416;8.512;2023-09-19T14:23:23;1.20;;;1.20;;
7903;SDS011;3997;48.416;8.512;2023-09-19T14:25:50;1.58;;;1.48;;
7903;SDS011;3997;48.416;8.512;2023-09-19T14:28:17;1.35;;;1.30;;
7903;SDS011;3997;48.416;8.512;2023-09-19T14:30:44;1.52;;;1.30;;
7903;SDS011;3997;48.416;8.512;2023-09-19T14:33:11;1.45;;;1.35;;
7903;SDS011;3997;48.416;8.512;2023-09-19T14:35:37;2.03;;;1.20;;
7903;SDS011;3997;48.416;8.512;2023-09-19T14:38:04;1.17;;;1.10;;
7903;SDS011;3997;48.416;8.512;2023-09-19T14:40:30;1.23;;;1.20;;
7903;SDS011;3997;48.416;8.512;2023-09-19T14:42:57;1.30;;;1.20;;
7903;SDS011;3997;48.416;8.512;2023-09-19T14:45:23;1.27;;;1.17;;
7903;SDS011;3997;48.416;8.512;2023-09-19T14:47:52;1.70;;;1.40;;
7903;SDS011;3997;48.416;8.512;2023-09-19T14:50:19;1.20;;;1.10;;
7903;SDS011;3997;48.416;8.512;2023-09-19T14:52:47;1.20;;;1.20;;
7903;SDS011;3997;48.416;8.512;2023-09-19T14:55:14;1.27;;;1.10;;
7903;SDS011;3997;48.416;8.512;2023-09-19T14:57:41;1.25;;;1.15;;
7903;SDS011;3997;48.416;8.512;2023-09-19T15:00:11;1.13;;;1.02;;
7903;SDS011;3997;48.416;8.512;2023-09-19T15:02:37;1.48;;;1.33;;
7903;SDS011;3997;48.416;8.512;2023-09-19T15:05:06;1.65;;;1.20;;
7903;SDS011;3997;48.416;8.512;2023-09-19T15:07:33;1.35;;;1.23;;
7903;SDS011;3997;48.416;8.512;2023-09-19T15:10:01;1.30;;;1.30;;
7903;SDS011;3997;48.416;8.512;2023-09-19T15:12:32;1.50;;;1.40;;
7903;SDS011;3997;48.416;8.512;2023-09-19T15:14:58;1.45;;;1.35;;
7903;SDS011;3997;48.416;8.512;2023-09-19T15:17:25;1.23;;;1.13;;
7903;SDS011;3997;48.416;8.512;2023-09-19T15:19:51;1.40;;;1.30;;
7903;SDS011;3997;48.416;8.512;2023-09-19T15:22:19;3.75;;;1.50;;
7903;SDS011;3997;48.416;8.512;2023-09-19T15:24:46;1.42;;;1.23;;
7903;SDS011;3997;48.416;8.512;2023-09-19T15:27:13;1.30;;;1.20;;
7903;SDS011;3997;48.416;8.512;2023-09-19T15:29:39;1.52;;;1.20;;
7903;SDS011;3997;48.416;8.512;2023-09-19T15:32:06;1.52;;;1.42;;
7903;SDS011;3997;48.416;8.512;2023-09-19T15:34:32;1.70;;;1.60;;
7903;SDS011;3997;48.416;8.512;2023-09-19T15:36:59;1.27;;;1.20;;